sensor_id;sensor_type;location;lat;lon;timestamp;pressure;altitude;pressure_sealevel;temperature;humidity
70833;BME280;58452;59.418;17.962;2023-02-01T00:00:44;98950.91;;;-3.70;72.47
70833;BME280;58452;59.418;17.962;2023-02-01T00:03:09;98940.41;;;-3.77;73.23
70833;BME280;58452;59.418;17.962;2023-02-01T00:05:35;98935.41;;;-3.64;73.21
70833;BME280;58452;59.418;17.962;2023-02-01T00:08:00;98945.09;;;-3.58;73.27
70833;BME280;58452;59.418;17.962;2023-02-01T00:10:26;98936.44;;;-3.54;73.33
70833;BME280;58452;59.418;17.962;2023-02-01T00:12:52;98938.97;;;-3.54;73.45
70833;BME280;58452;59.418;17.962;2023-02-01T00:15:17;98935.03;;;-3.58;73.30
70833;BME280;58452;59.418;17.962;2023-02-01T00:17:43;98930.38;;;-3.64;73.70
70833;BME280;58452;59.418;17.962;2023-02-01T00:20:09;98927.06;;;-3.52;73.86
70833;BME280;58452;59.418;17.962;2023-02-01T00:22:34;98921.25;;;-3.40;73.59
70833;BME280;58452;59.418;17.962;2023-02-01T00:25:00;98929.81;;;-3.30;73.27
70833;BME280;58452;59.418;17.962;2023-02-01T00:27:25;98927.22;;;-3.28;73.25
70833;BME280;58452;59.418;17.962;2023-02-01T00:29:50;98936.00;;;-3.21;73.19
70833;BME280;58452;59.418;17.962;2023-02-01T00:32:16;98933.56;;;-3.23;73.45
70833;BME280;58452;59.418;17.962;2023-02-01T00:34:41;98936.28;;;-3.26;73.82
70833;BME280;58452;59.418;17.962;2023-02-01T00:37:07;98927.81;;;-3.25;73.56
70833;BME280;58452;59.418;17.962;2023-02-01T00:39:32;98932.06;;;-3.25;73.32
70833;BME280;58452;59.418;17.962;2023-02-01T00:42:00;98924.00;;;-3.18;73.10
70833;BME280;58452;59.418;17.962;2023-02-01T00:44:26;98922.19;;;-3.16;73.07
70833;BME280;58452;59.418;17.962;2023-02-01T00:46:52;98922.97;;;-3.15;72.98
70833;BME280;58452;59.418;17.962;2023-02-01T00:49:17;98921.97;;;-3.13;72.94
70833;BME280;58452;59.418;17.962;2023-02-01T00:51:43;98928.63;;;-3.12;72.90
70833;BME280;58452;59.418;17.962;2023-02-01T00:54:08;98925.13;;;-3.09;72.89
70833;BME280;58452;59.418;17.962;2023-02-01T00:56:33;98915.72;;;-3.07;72.87
70833;BME280;58452;59.418;17.962;2023-02-01T00:58:59;98912.28;;;-3.06;72.92
70833;BME280;58452;59.418;17.962;2023-02-01T01:01:26;98916.91;;;-3.25;73.40
70833;BME280;58452;59.418;17.962;2023-02-01T01:03:54;98909.44;;;-3.39;73.95
70833;BME280;58452;59.418;17.962;2023-02-01T01:06:23;98913.59;;;-3.26;73.75
70833;BME280;58452;59.418;17.962;2023-02-01T01:08:51;98910.28;;;-3.14;73.96
70833;BME280;58452;59.418;17.962;2023-02-01T01:11:20;98908.16;;;-3.07;73.56
70833;BME280;58452;59.418;17.962;2023-02-01T01:13:47;98903.63;;;-3.02;73.38
70833;BME280;58452;59.418;17.962;2023-02-01T01:16:13;98914.91;;;-3.08;74.00
70833;BME280;58452;59.418;17.962;2023-02-01T01:18:39;98899.19;;;-3.24;74.19
70833;BME280;58452;59.418;17.962;2023-02-01T01:21:06;98905.31;;;-3.28;74.76
70833;BME280;58452;59.418;17.962;2023-02-01T01:23:32;98914.41;;;-3.13;74.45
70833;BME280;58452;59.418;17.962;2023-02-01T01:25:58;98913.78;;;-3.29;74.88
70833;BME280;58452;59.418;17.962;2023-02-01T01:28:24;98911.66;;;-3.22;74.97
70833;BME280;58452;59.418;17.962;2023-02-01T01:30:49;98921.47;;;-3.05;74.50
70833;BME280;58452;59.418;17.962;2023-02-01T01:33:15;98917.53;;;-2.97;74.36
70833;BME280;58452;59.418;17.962;2023-02-01T01:35:40;98920.66;;;-2.93;74.39
70833;BME280;58452;59.418;17.962;2023-02-01T01:38:05;98921.84;;;-2.86;74.23
70833;BME280;58452;59.418;17.962;2023-02-01T01:40:31;98910.78;;;-2.83;74.60
70833;BME280;58452;59.418;17.962;2023-02-01T01:42:57;98916.13;;;-2.75;74.13
70833;BME280;58452;59.418;17.962;2023-02-01T01:47:52;98925.31;;;-3.00;75.18
70833;BME280;58452;59.418;17.962;2023-02-01T01:50:22;98922.47;;;-2.82;75.02
70833;BME280;58452;59.418;17.962;2023-02-01T01:52:50;98917.72;;;-2.74;74.69
70833;BME280;58452;59.418;17.962;2023-02-01T01:55:19;98922.38;;;-2.68;74.63
70833;BME280;58452;59.418;17.962;2023-02-01T01:57:50;98930.22;;;-2.60;74.33
70833;BME280;58452;59.418;17.962;2023-02-01T02:00:19;98927.50;;;-2.70;74.73
70833;BME280;58452;59.418;17.962;2023-02-01T02:02:48;98933.97;;;-2.66;75.15
70833;BME280;58452;59.418;17.962;2023-02-01T02:05:19;98927.69;;;-2.60;74.88
70833;BME280;58452;59.418;17.962;2023-02-01T02:07:49;98923.84;;;-2.53;74.89
70833;BME280;58452;59.418;17.962;2023-02-01T02:10:16;98916.91;;;-2.50;74.82
70833;BME280;58452;59.418;17.962;2023-02-01T02:12:44;98912.44;;;-2.46;74.79
70833;BME280;58452;59.418;17.962;2023-02-01T02:15:12;98899.81;;;-2.46;74.58
70833;BME280;58452;59.418;17.962;2023-02-01T02:18:08;98903.53;;;-2.39;74.97
70833;BME280;58452;59.418;17.962;2023-02-01T02:29:07;98909.13;;;-2.23;74.52
70833;BME280;58452;59.418;17.962;2023-02-01T02:34:47;98915.91;;;-2.72;76.07
70833;BME280;58452;59.418;17.962;2023-02-01T02:37:36;98925.97;;;-2.60;76.17
70833;BME280;58452;59.418;17.962;2023-02-01T02:40:19;98928.06;;;-2.41;75.53
70833;BME280;58452;59.418;17.962;2023-02-01T02:45:38;98930.16;;;-2.22;75.11
70833;BME280;58452;59.418;17.962;2023-02-01T02:54:39;98919.50;;;-2.15;75.21
70833;BME280;58452;59.418;17.962;2023-02-01T02:57:25;98916.75;;;-2.12;75.05
70833;BME280;58452;59.418;17.962;2023-02-01T03:00:12;98919.78;;;-2.07;75.43
70833;BME280;58452;59.418;17.962;2023-02-01T03:02:58;98927.84;;;-2.02;75.42
70833;BME280;58452;59.418;17.962;2023-02-01T03:05:47;98922.38;;;-1.95;74.69
70833;BME280;58452;59.418;17.962;2023-02-01T03:08:16;98914.66;;;-1.94;74.95
70833;BME280;58452;59.418;17.962;2023-02-01T03:13:36;98914.25;;;-1.88;74.60
70833;BME280;58452;59.418;17.962;2023-02-01T03:18:57;98923.69;;;-2.26;76.53
70833;BME280;58452;59.418;17.962;2023-02-01T03:21:43;98923.66;;;-2.14;76.06
70833;BME280;58452;59.418;17.962;2023-02-01T03:24:14;98922.59;;;-1.99;75.99
70833;BME280;58452;59.418;17.962;2023-02-01T03:26:47;98914.47;;;-1.91;75.69
70833;BME280;58452;59.418;17.962;2023-02-01T03:29:18;98915.06;;;-1.87;75.64
70833;BME280;58452;59.418;17.962;2023-02-01T03:31:46;98921.50;;;-1.83;75.67
70833;BME280;58452;59.418;17.962;2023-02-01T03:34:12;98910.97;;;-1.77;75.31
70833;BME280;58452;59.418;17.962;2023-02-01T03:36:40;98914.91;;;-1.73;75.08
70833;BME280;58452;59.418;17.962;2023-02-01T03:41:42;98911.91;;;-1.67;75.13
70833;BME280;58452;59.418;17.962;2023-02-01T03:47:05;98915.78;;;-1.98;76.03
70833;BME280;58452;59.418;17.962;2023-02-01T03:49:38;98922.59;;;-1.99;76.30
70833;BME280;58452;59.418;17.962;2023-02-01T03:52:06;98925.78;;;-1.84;75.67
70833;BME280;58452;59.418;17.962;2023-02-01T03:54:35;98926.72;;;-1.74;75.76
70833;BME280;58452;59.418;17.962;2023-02-01T03:57:07;98929.72;;;-1.69;75.69
70833;BME280;58452;59.418;17.962;2023-02-01T03:59:33;98939.50;;;-1.64;75.98
70833;BME280;58452;59.418;17.962;2023-02-01T04:01:59;98934.13;;;-1.83;75.69
70833;BME280;58452;59.418;17.962;2023-02-01T04:04:25;98937.44;;;-1.70;75.89
70833;BME280;58452;59.418;17.962;2023-02-01T04:06:50;98933.78;;;-1.66;75.69
70833;BME280;58452;59.418;17.962;2023-02-01T04:09:16;98925.06;;;-1.62;75.45
70833;BME280;58452;59.418;17.962;2023-02-01T04:11:42;98928.03;;;-1.57;75.34
70833;BME280;58452;59.418;17.962;2023-02-01T04:14:08;98933.09;;;-1.57;75.50
70833;BME280;58452;59.418;17.962;2023-02-01T04:16:34;98924.38;;;-1.53;75.14
70833;BME280;58452;59.418;17.962;2023-02-01T04:19:00;98930.97;;;-1.51;75.02
70833;BME280;58452;59.418;17.962;2023-02-01T04:21:26;98931.06;;;-1.52;75.02
70833;BME280;58452;59.418;17.962;2023-02-01T04:23:52;98931.19;;;-1.77;75.41
70833;BME280;58452;59.418;17.962;2023-02-01T04:26:18;98928.50;;;-2.11;76.24
70833;BME280;58452;59.418;17.962;2023-02-01T04:28:44;98932.00;;;-2.01;76.65
70833;BME280;58452;59.418;17.962;2023-02-01T04:31:13;98938.28;;;-1.82;76.85
70833;BME280;58452;59.418;17.962;2023-02-01T04:33:39;98937.31;;;-1.69;76.06
70833;BME280;58452;59.418;17.962;2023-02-01T04:36:04;98928.25;;;-1.60;75.54
70833;BME280;58452;59.418;17.962;2023-02-01T04:38:30;98937.03;;;-1.53;75.65
70833;BME280;58452;59.418;17.962;2023-02-01T04:40:57;98944.38;;;-1.50;75.42
70833;BME280;58452;59.418;17.962;2023-02-01T04:43:23;98932.69;;;-1.51;75.47
70833;BME280;58452;59.418;17.962;2023-02-01T04:45:49;98939.13;;;-1.47;75.14
70833;BME280;58452;59.418;17.962;2023-02-01T04:48:15;98936.47;;;-1.45;74.59
70833;BME280;58452;59.418;17.962;2023-02-01T04:50:42;98941.13;;;-1.63;75.02
70833;BME280;58452;59.418;17.962;2023-02-01T04:53:07;98937.22;;;-1.67;75.34
70833;BME280;58452;59.418;17.962;2023-02-01T04:55:33;98940.00;;;-1.59;75.49
70833;BME280;58452;59.418;17.962;2023-02-01T04:57:58;98943.94;;;-1.55;75.50
70833;BME280;58452;59.418;17.962;2023-02-01T05:00:24;98946.22;;;-1.52;75.55
70833;BME280;58452;59.418;17.962;2023-02-01T05:02:49;98944.38;;;-1.50;74.85
70833;BME280;58452;59.418;17.962;2023-02-01T05:05:15;98945.09;;;-1.48;74.87
70833;BME280;58452;59.418;17.962;2023-02-01T05:07:40;98942.25;;;-1.43;75.62
70833;BME280;58452;59.418;17.962;2023-02-01T05:10:06;98945.38;;;-1.40;74.89
70833;BME280;58452;59.418;17.962;2023-02-01T05:12:32;98951.81;;;-1.36;75.26
70833;BME280;58452;59.418;17.962;2023-02-01T05:15:16;98953.19;;;-1.32;75.48
70833;BME280;58452;59.418;17.962;2023-02-01T05:17:41;98952.41;;;-1.32;74.77
70833;BME280;58452;59.418;17.962;2023-02-01T05:20:08;98959.88;;;-1.31;75.22
70833;BME280;58452;59.418;17.962;2023-02-01T05:22:34;98967.38;;;-1.29;74.79
70833;BME280;58452;59.418;17.962;2023-02-01T05:24:59;98972.19;;;-1.26;75.08
70833;BME280;58452;59.418;17.962;2023-02-01T05:27:24;98961.03;;;-1.24;74.98
70833;BME280;58452;59.418;17.962;2023-02-01T05:29:50;98956.69;;;-1.22;75.20
70833;BME280;58452;59.418;17.962;2023-02-01T05:32:15;98962.44;;;-1.20;74.64
70833;BME280;58452;59.418;17.962;2023-02-01T05:34:41;98969.94;;;-1.18;75.30
70833;BME280;58452;59.418;17.962;2023-02-01T05:37:06;98975.97;;;-1.32;75.35
70833;BME280;58452;59.418;17.962;2023-02-01T05:39:32;98973.91;;;-1.27;75.56
70833;BME280;58452;59.418;17.962;2023-02-01T05:41:57;98973.47;;;-1.21;74.98
70833;BME280;58452;59.418;17.962;2023-02-01T05:44:22;98980.63;;;-1.15;75.05
70833;BME280;58452;59.418;17.962;2023-02-01T05:46:48;98980.41;;;-1.12;75.08
70833;BME280;58452;59.418;17.962;2023-02-01T05:49:13;98984.44;;;-1.09;75.28
70833;BME280;58452;59.418;17.962;2023-02-01T05:51:39;98974.88;;;-1.06;75.77
70833;BME280;58452;59.418;17.962;2023-02-01T05:54:04;98974.78;;;-1.04;75.79
70833;BME280;58452;59.418;17.962;2023-02-01T05:56:30;98973.66;;;-1.00;75.43
70833;BME280;58452;59.418;17.962;2023-02-01T05:58:55;98973.75;;;-1.02;75.77
70833;BME280;58452;59.418;17.962;2023-02-01T06:01:20;98979.28;;;-0.96;75.48
70833;BME280;58452;59.418;17.962;2023-02-01T06:03:46;98974.91;;;-0.94;75.38
70833;BME280;58452;59.418;17.962;2023-02-01T06:06:11;98979.88;;;-0.93;75.82
70833;BME280;58452;59.418;17.962;2023-02-01T06:08:37;98984.81;;;-0.91;75.73
70833;BME280;58452;59.418;17.962;2023-02-01T06:11:05;98982.25;;;-1.03;75.53
70833;BME280;58452;59.418;17.962;2023-02-01T06:13:31;98979.28;;;-0.96;76.20
70833;BME280;58452;59.418;17.962;2023-02-01T06:15:57;98979.06;;;-0.93;75.89
70833;BME280;58452;59.418;17.962;2023-02-01T06:18:24;98973.78;;;-0.90;76.47
70833;BME280;58452;59.418;17.962;2023-02-01T06:20:56;98978.84;;;-0.90;76.06
70833;BME280;58452;59.418;17.962;2023-02-01T06:23:23;98992.78;;;-0.85;75.81
70833;BME280;58452;59.418;17.962;2023-02-01T06:25:53;98990.25;;;-0.85;76.20
70833;BME280;58452;59.418;17.962;2023-02-01T06:28:23;98981.59;;;-0.93;76.27
70833;BME280;58452;59.418;17.962;2023-02-01T06:30:49;98996.09;;;-0.84;76.39
70833;BME280;58452;59.418;17.962;2023-02-01T06:33:14;98991.75;;;-0.82;76.07
70833;BME280;58452;59.418;17.962;2023-02-01T06:35:41;98994.84;;;-0.79;76.03
70833;BME280;58452;59.418;17.962;2023-02-01T06:38:10;98997.16;;;-0.76;75.97
70833;BME280;58452;59.418;17.962;2023-02-01T06:40:36;98994.06;;;-0.79;76.46
70833;BME280;58452;59.418;17.962;2023-02-01T06:43:02;98996.34;;;-0.76;76.49
70833;BME280;58452;59.418;17.962;2023-02-01T06:45:27;98995.22;;;-0.72;76.32
70833;BME280;58452;59.418;17.962;2023-02-01T06:47:53;98994.06;;;-0.68;76.72
70833;BME280;58452;59.418;17.962;2023-02-01T06:50:18;98995.56;;;-0.66;75.89
70833;BME280;58452;59.418;17.962;2023-02-01T06:52:43;98999.59;;;-0.63;76.73
70833;BME280;58452;59.418;17.962;2023-02-01T06:55:09;98996.84;;;-0.60;76.14
70833;BME280;58452;59.418;17.962;2023-02-01T06:57:34;98998.47;;;-0.59;76.10
70833;BME280;58452;59.418;17.962;2023-02-01T07:00:03;98996.72;;;-0.59;76.18
70833;BME280;58452;59.418;17.962;2023-02-01T07:02:28;99000.75;;;-0.56;76.27
70833;BME280;58452;59.418;17.962;2023-02-01T07:04:54;99003.31;;;-0.56;76.30
70833;BME280;58452;59.418;17.962;2023-02-01T07:07:21;99003.75;;;-0.51;77.23
70833;BME280;58452;59.418;17.962;2023-02-01T07:09:48;99011.16;;;-0.48;76.86
70833;BME280;58452;59.418;17.962;2023-02-01T07:12:14;99006.66;;;-0.44;76.63
70833;BME280;58452;59.418;17.962;2023-02-01T07:14:40;99003.31;;;-0.45;76.51
70833;BME280;58452;59.418;17.962;2023-02-01T07:17:05;99014.81;;;-0.41;77.41
70833;BME280;58452;59.418;17.962;2023-02-01T07:19:31;99013.69;;;-0.37;76.76
70833;BME280;58452;59.418;17.962;2023-02-01T07:21:56;99014.13;;;-0.32;76.66
70833;BME280;58452;59.418;17.962;2023-02-01T07:24:22;99013.22;;;-0.31;77.01
70833;BME280;58452;59.418;17.962;2023-02-01T07:26:47;99006.28;;;-0.29;77.24
70833;BME280;58452;59.418;17.962;2023-02-01T07:29:14;99009.28;;;-0.24;76.58
70833;BME280;58452;59.418;17.962;2023-02-01T07:31:39;99016.56;;;-0.19;76.68
70833;BME280;58452;59.418;17.962;2023-02-01T07:34:05;99009.63;;;-0.17;77.20
70833;BME280;58452;59.418;17.962;2023-02-01T07:36:30;99013.66;;;-0.15;76.55
70833;BME280;58452;59.418;17.962;2023-02-01T07:38:57;99015.75;;;-0.20;77.79
70833;BME280;58452;59.418;17.962;2023-02-01T07:41:22;99022.44;;;-0.19;77.57
70833;BME280;58452;59.418;17.962;2023-02-01T07:43:48;99027.28;;;-0.16;77.95
70833;BME280;58452;59.418;17.962;2023-02-01T07:46:16;99028.66;;;-0.12;77.12
70833;BME280;58452;59.418;17.962;2023-02-01T07:48:42;99025.97;;;-0.10;78.00
70833;BME280;58452;59.418;17.962;2023-02-01T07:51:15;99016.66;;;-0.10;77.47
70833;BME280;58452;59.418;17.962;2023-02-01T07:53:41;99018.28;;;-0.09;77.68
70833;BME280;58452;59.418;17.962;2023-02-01T07:56:24;99016.19;;;-0.04;77.97
70833;BME280;58452;59.418;17.962;2023-02-01T07:58:52;99019.41;;;-0.02;77.92
70833;BME280;58452;59.418;17.962;2023-02-01T08:01:23;99016.66;;;0.02;78.36
70833;BME280;58452;59.418;17.962;2023-02-01T08:03:54;99016.28;;;0.06;77.95
70833;BME280;58452;59.418;17.962;2023-02-01T08:06:21;99016.41;;;-0.07;78.47
70833;BME280;58452;59.418;17.962;2023-02-01T08:08:51;99024.16;;;-0.08;79.48
70833;BME280;58452;59.418;17.962;2023-02-01T08:11:18;99022.19;;;-0.05;79.81
70833;BME280;58452;59.418;17.962;2023-02-01T08:13:45;99025.88;;;0.03;79.07
70833;BME280;58452;59.418;17.962;2023-02-01T08:16:11;99028.16;;;0.06;79.81
70833;BME280;58452;59.418;17.962;2023-02-01T08:18:37;99030.22;;;0.12;79.74
70833;BME280;58452;59.418;17.962;2023-02-01T08:21:11;99032.56;;;0.15;79.05
70833;BME280;58452;59.418;17.962;2023-02-01T08:23:38;99033.13;;;0.18;79.68
70833;BME280;58452;59.418;17.962;2023-02-01T08:28:30;99036.00;;;0.25;79.06
70833;BME280;58452;59.418;17.962;2023-02-01T08:30:56;99036.00;;;0.25;79.21
70833;BME280;58452;59.418;17.962;2023-02-01T08:33:21;99041.50;;;0.19;80.11
70833;BME280;58452;59.418;17.962;2023-02-01T08:35:47;99040.72;;;0.18;79.92
70833;BME280;58452;59.418;17.962;2023-02-01T08:38:12;99044.75;;;0.21;80.37
70833;BME280;58452;59.418;17.962;2023-02-01T08:40:38;99044.28;;;0.27;79.65
70833;BME280;58452;59.418;17.962;2023-02-01T08:43:03;99038.19;;;0.29;79.81
70833;BME280;58452;59.418;17.962;2023-02-01T08:45:29;99032.97;;;0.31;79.39
70833;BME280;58452;59.418;17.962;2023-02-01T08:47:55;99027.66;;;0.34;80.10
70833;BME280;58452;59.418;17.962;2023-02-01T08:50:22;99030.66;;;0.39;79.30
70833;BME280;58452;59.418;17.962;2023-02-01T08:52:48;99026.25;;;0.41;79.38
70833;BME280;58452;59.418;17.962;2023-02-01T08:55:15;99028.66;;;0.42;79.79
70833;BME280;58452;59.418;17.962;2023-02-01T08:57:41;99017.72;;;0.42;79.87
70833;BME280;58452;59.418;17.962;2023-02-01T09:00:15;99030.88;;;0.47;79.34
70833;BME280;58452;59.418;17.962;2023-02-01T09:02:41;99040.06;;;0.48;79.27
70833;BME280;58452;59.418;17.962;2023-02-01T09:05:07;99040.53;;;0.53;80.23
70833;BME280;58452;59.418;17.962;2023-02-01T09:07:33;99046.53;;;0.41;80.04
70833;BME280;58452;59.418;17.962;2023-02-01T09:09:59;99047.91;;;0.45;80.72
70833;BME280;58452;59.418;17.962;2023-02-01T09:12:29;99045.38;;;0.45;80.62
70833;BME280;58452;59.418;17.962;2023-02-01T09:14:58;99046.13;;;0.36;80.50
70833;BME280;58452;59.418;17.962;2023-02-01T09:17:25;99054.84;;;0.43;80.64
70833;BME280;58452;59.418;17.962;2023-02-01T09:19:51;99053.00;;;0.45;80.41
70833;BME280;58452;59.418;17.962;2023-02-01T09:22:16;99052.53;;;0.51;79.77
70833;BME280;58452;59.418;17.962;2023-02-01T09:24:42;99047.47;;;0.51;79.88
70833;BME280;58452;59.418;17.962;2023-02-01T09:27:07;99048.81;;;0.55;80.16
70833;BME280;58452;59.418;17.962;2023-02-01T09:29:33;99047.00;;;0.46;80.61
70833;BME280;58452;59.418;17.962;2023-02-01T09:31:58;99056.41;;;0.55;80.60
70833;BME280;58452;59.418;17.962;2023-02-01T09:34:24;99057.63;;;0.51;80.29
70833;BME280;58452;59.418;17.962;2023-02-01T09:36:50;99059.66;;;0.57;80.79
70833;BME280;58452;59.418;17.962;2023-02-01T09:39:15;99063.13;;;0.56;80.58
70833;BME280;58452;59.418;17.962;2023-02-01T09:47:19;99068.97;;;0.68;80.61
70833;BME280;58452;59.418;17.962;2023-02-01T09:50:05;99060.09;;;0.73;80.40
70833;BME280;58452;59.418;17.962;2023-02-01T09:53:05;99074.06;;;0.68;80.89
70833;BME280;58452;59.418;17.962;2023-02-01T09:55:41;99064.22;;;0.74;80.90
70833;BME280;58452;59.418;17.962;2023-02-01T10:00:52;99061.88;;;0.82;80.80
70833;BME280;58452;59.418;17.962;2023-02-01T10:03:18;99060.28;;;0.81;80.77
70833;BME280;58452;59.418;17.962;2023-02-01T10:11:56;99073.38;;;0.97;80.63
70833;BME280;58452;59.418;17.962;2023-02-01T10:15:20;99070.34;;;1.04;80.55
70833;BME280;58452;59.418;17.962;2023-02-01T10:18:04;99070.09;;;1.07;79.95
70833;BME280;58452;59.418;17.962;2023-02-01T10:23:31;99068.75;;;1.03;80.06
70833;BME280;58452;59.418;17.962;2023-02-01T10:26:19;99072.22;;;1.02;79.61
70833;BME280;58452;59.418;17.962;2023-02-01T10:28:50;99073.22;;;0.78;80.02
70833;BME280;58452;59.418;17.962;2023-02-01T10:31:17;99073.88;;;0.91;80.31
70833;BME280;58452;59.418;17.962;2023-02-01T10:33:47;99080.50;;;1.04;79.81
70833;BME280;58452;59.418;17.962;2023-02-01T10:36:18;99085.78;;;1.12;79.76
70833;BME280;58452;59.418;17.962;2023-02-01T10:38:45;99077.97;;;1.04;79.11
70833;BME280;58452;59.418;17.962;2023-02-01T10:41:15;99087.44;;;1.02;79.06
70833;BME280;58452;59.418;17.962;2023-02-01T10:43:41;99090.88;;;1.12;78.83
70833;BME280;58452;59.418;17.962;2023-02-01T10:46:08;99089.44;;;1.19;79.07
70833;BME280;58452;59.418;17.962;2023-02-01T10:48:34;99089.06;;;1.03;78.44
70833;BME280;58452;59.418;17.962;2023-02-01T10:53:42;99087.53;;;0.79;79.54
70833;BME280;58452;59.418;17.962;2023-02-01T10:56:10;99086.78;;;0.88;79.55
70833;BME280;58452;59.418;17.962;2023-02-01T10:58:44;99088.94;;;0.72;80.00
70833;BME280;58452;59.418;17.962;2023-02-01T11:01:17;99080.38;;;0.84;79.62
70833;BME280;58452;59.418;17.962;2023-02-01T11:03:52;99084.69;;;0.93;79.28
70833;BME280;58452;59.418;17.962;2023-02-01T11:06:31;99087.69;;;0.98;78.77
70833;BME280;58452;59.418;17.962;2023-02-01T11:09:11;99087.44;;;1.02;78.92
70833;BME280;58452;59.418;17.962;2023-02-01T11:12:01;99087.69;;;0.98;78.97
70833;BME280;58452;59.418;17.962;2023-02-01T11:14:34;99085.81;;;1.01;79.12
70833;BME280;58452;59.418;17.962;2023-02-01T11:17:17;99103.81;;;1.09;78.81
70833;BME280;58452;59.418;17.962;2023-02-01T11:19:56;99103.47;;;1.13;79.53
70833;BME280;58452;59.418;17.962;2023-02-01T11:22:24;99103.13;;;1.07;79.40
70833;BME280;58452;59.418;17.962;2023-02-01T11:24:50;99101.94;;;1.11;79.36
70833;BME280;58452;59.418;17.962;2023-02-01T11:27:19;99106.56;;;1.17;79.10
70833;BME280;58452;59.418;17.962;2023-02-01T11:29:49;99098.78;;;1.18;79.02
70833;BME280;58452;59.418;17.962;2023-02-01T11:32:17;99100.34;;;1.10;78.81
70833;BME280;58452;59.418;17.962;2023-02-01T11:37:30;99110.53;;;1.30;78.79
70833;BME280;58452;59.418;17.962;2023-02-01T11:39:59;99107.06;;;1.31;79.01
70833;BME280;58452;59.418;17.962;2023-02-01T11:42:26;99106.69;;;1.36;78.32
70833;BME280;58452;59.418;17.962;2023-02-01T11:45:25;99113.38;;;1.37;78.51
70833;BME280;58452;59.418;17.962;2023-02-01T11:47:52;99112.72;;;1.35;78.13
70833;BME280;58452;59.418;17.962;2023-02-01T11:50:26;99116.84;;;1.36;78.37
70833;BME280;58452;59.418;17.962;2023-02-01T11:55:44;99123.91;;;1.32;78.06
70833;BME280;58452;59.418;17.962;2023-02-01T11:58:48;99122.19;;;1.33;78.02
70833;BME280;58452;59.418;17.962;2023-02-01T12:04:03;99122.06;;;1.14;78.82
70833;BME280;58452;59.418;17.962;2023-02-01T12:14:56;99126.59;;;1.31;78.30
70833;BME280;58452;59.418;17.962;2023-02-01T12:17:31;99125.66;;;1.32;78.13
70833;BME280;58452;59.418;17.962;2023-02-01T12:36:40;99134.75;;;1.14;79.01
70833;BME280;58452;59.418;17.962;2023-02-01T12:39:25;99141.56;;;1.13;79.30
70833;BME280;58452;59.418;17.962;2023-02-01T12:42:18;99132.28;;;1.23;78.89
70833;BME280;58452;59.418;17.962;2023-02-01T12:44:52;99143.50;;;1.21;78.54
70833;BME280;58452;59.418;17.962;2023-02-01T12:50:15;99143.50;;;1.21;79.17
70833;BME280;58452;59.418;17.962;2023-02-01T12:52:44;99147.47;;;1.14;77.78
70833;BME280;58452;59.418;17.962;2023-02-01T12:55:23;99156.16;;;1.32;77.75
70833;BME280;58452;59.418;17.962;2023-02-01T12:57:53;99158.41;;;1.46;77.35
70833;BME280;58452;59.418;17.962;2023-02-01T13:03:01;99159.94;;;1.37;76.94
70833;BME280;58452;59.418;17.962;2023-02-01T13:05:34;99163.00;;;1.52;76.60
70833;BME280;58452;59.418;17.962;2023-02-01T13:08:12;99167.00;;;1.55;76.54
70833;BME280;58452;59.418;17.962;2023-02-01T13:10:50;99162.31;;;1.50;76.48
70833;BME280;58452;59.418;17.962;2023-02-01T13:18:38;99174.13;;;1.40;76.81
70833;BME280;58452;59.418;17.962;2023-02-01T13:21:17;99177.94;;;1.45;76.67
70833;BME280;58452;59.418;17.962;2023-02-01T13:23:46;99179.94;;;1.31;77.80
70833;BME280;58452;59.418;17.962;2023-02-01T13:26:13;99193.34;;;1.33;77.37
70833;BME280;58452;59.418;17.962;2023-02-01T13:28:45;99191.53;;;1.24;77.71
70833;BME280;58452;59.418;17.962;2023-02-01T13:37:05;99191.63;;;0.90;78.77
70833;BME280;58452;59.418;17.962;2023-02-01T13:42:33;99210.78;;;0.83;78.69
70833;BME280;58452;59.418;17.962;2023-02-01T13:45:12;99204.66;;;0.86;79.17
70833;BME280;58452;59.418;17.962;2023-02-01T13:47:45;99218.16;;;0.86;78.83
70833;BME280;58452;59.418;17.962;2023-02-01T13:50:24;99220.72;;;0.86;78.93
70833;BME280;58452;59.418;17.962;2023-02-01T13:52:54;99223.16;;;0.77;79.10
70833;BME280;58452;59.418;17.962;2023-02-01T13:57:47;99227.66;;;0.73;78.92
70833;BME280;58452;59.418;17.962;2023-02-01T14:00:33;99230.19;;;0.73;79.16
70833;BME280;58452;59.418;17.962;2023-02-01T14:13:31;99247.72;;;0.43;76.96
70833;BME280;58452;59.418;17.962;2023-02-01T14:21:18;99255.16;;;0.22;77.57
70833;BME280;58452;59.418;17.962;2023-02-01T14:23:56;99262.91;;;0.21;77.63
70833;BME280;58452;59.418;17.962;2023-02-01T14:34:48;99280.00;;;0.41;76.07
70833;BME280;58452;59.418;17.962;2023-02-01T14:42:19;99272.88;;;0.46;75.54
70833;BME280;58452;59.418;17.962;2023-02-01T14:44:47;99271.34;;;0.21;75.95
70833;BME280;58452;59.418;17.962;2023-02-01T14:47:26;99275.25;;;0.25;76.14
70833;BME280;58452;59.418;17.962;2023-02-01T14:52:29;99271.69;;;0.39;76.01
70833;BME280;58452;59.418;17.962;2023-02-01T14:55:01;99284.75;;;0.45;76.16
70833;BME280;58452;59.418;17.962;2023-02-01T14:57:28;99283.00;;;0.46;75.41
70833;BME280;58452;59.418;17.962;2023-02-01T15:00:07;99289.69;;;0.36;75.96
70833;BME280;58452;59.418;17.962;2023-02-01T15:02:34;99290.59;;;0.35;75.82
70833;BME280;58452;59.418;17.962;2023-02-01T15:05:01;99287.16;;;0.36;76.30
70833;BME280;58452;59.418;17.962;2023-02-01T15:07:28;99296.84;;;0.42;75.40
70833;BME280;58452;59.418;17.962;2023-02-01T15:09:56;99298.47;;;0.43;75.60
70833;BME280;58452;59.418;17.962;2023-02-01T15:12:29;99306.78;;;0.45;76.15
70833;BME280;58452;59.418;17.962;2023-02-01T15:15:11;99310.59;;;0.51;75.66
70833;BME280;58452;59.418;17.962;2023-02-01T15:17:37;99319.22;;;0.48;75.78
70833;BME280;58452;59.418;17.962;2023-02-01T15:20:13;99312.44;;;0.48;75.53
70833;BME280;58452;59.418;17.962;2023-02-01T15:22:39;99319.22;;;0.48;75.81
70833;BME280;58452;59.418;17.962;2023-02-01T15:25:18;99320.97;;;0.47;75.05
70833;BME280;58452;59.418;17.962;2023-02-01T15:27:44;99330.31;;;0.47;75.70
70833;BME280;58452;59.418;17.962;2023-02-01T15:30:27;99331.81;;;0.49;75.82